createdAt,value
2023-01-01T00:01:41.471Z,25.87
2023-01-01T00:04:12.163Z,28.30
2023-01-01T00:06:38.955Z,28.63
2023-01-01T00:09:05.556Z,30.10
2023-01-01T00:11:32.153Z,27.47
2023-01-01T00:14:00.168Z,25.63
2023-01-01T00:16:26.853Z,22.83
2023-01-01T00:18:53.629Z,21.13
2023-01-01T00:21:20.280Z,18.53
2023-01-01T00:23:46.813Z,19.17
2023-01-01T00:26:15.438Z,17.40
2023-01-01T00:28:42.280Z,17.47
2023-01-01T00:31:11.917Z,16.73
2023-01-01T00:33:38.521Z,15.53
2023-01-01T00:36:09.390Z,15.03
2023-01-01T00:38:36.354Z,12.73
2023-01-01T00:41:03.476Z,12.53
2023-01-01T00:43:30.253Z,12.30
2023-01-01T00:45:56.889Z,10.90
2023-01-01T00:48:24.883Z,12.57
2023-01-01T00:50:52.834Z,11.20
2023-01-01T00:53:20.682Z,11.00
2023-01-01T00:55:48.815Z,10.27
2023-01-01T00:58:16.146Z,12.83
2023-01-01T01:00:42.842Z,12.27
2023-01-01T01:03:10.898Z,12.60
2023-01-01T01:05:39.153Z,13.00
2023-01-01T01:08:05.786Z,12.73
2023-01-01T01:10:32.326Z,13.20
2023-01-01T01:12:58.862Z,12.80
2023-01-01T01:15:25.405Z,12.57
2023-01-01T01:17:52.011Z,13.60
2023-01-01T01:20:18.794Z,13.90
2023-01-01T01:22:46.745Z,11.30
2023-01-01T01:25:13.317Z,10.23
2023-01-01T01:27:39.871Z,10.93
2023-01-01T01:30:07.758Z,10.70
2023-01-01T01:32:34.303Z,11.13
2023-01-01T01:35:00.865Z,7.87
2023-01-01T01:37:27.442Z,9.20
2023-01-01T01:39:55.387Z,8.93
2023-01-01T01:42:22.363Z,7.87
2023-01-01T01:44:52.719Z,7.70
2023-01-01T01:47:23.812Z,7.93
2023-01-01T01:49:55.548Z,7.40
2023-01-01T01:52:22.215Z,7.43
2023-01-01T01:54:49.169Z,7.50
2023-01-01T01:57:17.443Z,8.20
2023-01-01T01:59:48.463Z,7.67
2023-01-01T02:02:18.431Z,7.30
2023-01-01T02:04:45.469Z,7.57
2023-01-01T02:07:14.746Z,8.50
2023-01-01T02:09:42.107Z,5.90
2023-01-01T02:12:08.716Z,5.53
2023-01-01T02:14:36.709Z,6.00
2023-01-01T02:17:09.040Z,6.37
2023-01-01T02:19:43.955Z,6.27
2023-01-01T02:22:16.588Z,6.53
2023-01-01T02:24:55.752Z,6.30
2023-01-01T02:27:33.736Z,7.50
2023-01-01T02:30:04.443Z,5.97
2023-01-01T02:32:36.765Z,5.23
2023-01-01T02:35:08.357Z,7.13
2023-01-01T02:37:35.007Z,5.97
2023-01-01T02:40:02.346Z,5.13
2023-01-01T02:42:29.611Z,6.60
2023-01-01T02:44:58.335Z,5.60
2023-01-01T02:47:26.243Z,4.93
2023-01-01T02:50:01.031Z,5.23
2023-01-01T02:52:42.296Z,4.23
2023-01-01T02:55:20.185Z,4.60
2023-01-01T02:57:52.087Z,4.83
2023-01-01T03:00:20.039Z,4.87
2023-01-01T03:03:01.783Z,4.07
2023-01-01T03:05:37.027Z,4.03
2023-01-01T03:08:08.584Z,3.90
2023-01-01T03:10:43.164Z,3.67
2023-01-01T03:13:17.389Z,4.60
2023-01-01T03:15:51.221Z,4.60
2023-01-01T03:18:23.261Z,4.93
2023-01-01T03:20:53.081Z,4.10
2023-01-01T03:23:24.087Z,4.47
2023-01-01T03:25:54.242Z,4.90
2023-01-01T03:28:24.891Z,4.77
2023-01-01T03:30:53.413Z,5.90
2023-01-01T03:33:27.505Z,4.47
2023-01-01T03:35:59.449Z,4.20
2023-01-01T03:38:31.418Z,3.87
2023-01-01T03:41:02.711Z,3.20
2023-01-01T03:43:39.058Z,4.40
2023-01-01T03:46:08.626Z,4.30
2023-01-01T03:48:36.565Z,4.97
2023-01-01T03:51:10.092Z,3.27
2023-01-01T03:53:39.489Z,5.00
2023-01-01T03:56:14.142Z,4.40
2023-01-01T03:58:45.706Z,3.77
2023-01-01T04:01:18.066Z,2.60
2023-01-01T04:03:47.469Z,5.50
2023-01-01T04:06:14.084Z,3.27
2023-01-01T04:08:40.714Z,3.30
2023-01-01T04:11:13.805Z,3.03
2023-01-01T04:13:46.517Z,2.90
2023-01-01T04:16:13.120Z,4.40
2023-01-01T04:18:39.705Z,3.00
2023-01-01T04:21:07.629Z,3.13
2023-01-01T04:23:34.174Z,3.37
2023-01-01T04:26:00.739Z,2.87
2023-01-01T04:28:27.274Z,2.83
2023-01-01T04:33:19.275Z,3.07
2023-01-01T04:35:45.836Z,3.80
2023-01-01T04:38:14.700Z,2.93
2023-01-01T04:40:41.253Z,2.60
2023-01-01T04:43:07.781Z,2.60
2023-01-01T04:45:34.352Z,2.43
2023-01-01T04:48:04.072Z,2.20
2023-01-01T04:50:30.627Z,3.97
2023-01-01T04:52:58.789Z,2.50
2023-01-01T04:55:26.747Z,2.50
2023-01-01T04:57:53.271Z,2.23
2023-01-01T05:00:19.968Z,3.00
2023-01-01T05:02:46.583Z,2.30
2023-01-01T05:05:13.293Z,2.00
2023-01-01T05:07:39.851Z,2.20
2023-01-01T05:10:07.187Z,2.80
2023-01-01T05:12:35.194Z,2.67
2023-01-01T05:15:01.750Z,2.20
2023-01-01T05:17:28.327Z,7.03
2023-01-01T05:19:54.850Z,2.57
2023-01-01T05:22:21.383Z,3.97
2023-01-01T05:24:47.905Z,3.17
2023-01-01T05:27:14.437Z,3.10
2023-01-01T05:29:42.341Z,2.33
2023-01-01T05:36:59.809Z,2.30
2023-01-01T05:39:26.386Z,2.00
2023-01-01T05:41:52.919Z,3.00
2023-01-01T05:44:19.575Z,2.40
2023-01-01T05:46:47.526Z,2.57
2023-01-01T05:49:14.305Z,2.30
2023-01-01T05:54:06.582Z,3.30
2023-01-01T05:56:33.204Z,2.63
2023-01-01T05:58:59.760Z,2.43
2023-01-01T06:01:28.225Z,1.90
2023-01-01T06:03:57.894Z,1.93
2023-01-01T06:06:26.775Z,2.00
2023-01-01T06:08:55.812Z,2.27
2023-01-01T06:11:22.913Z,2.07
2023-01-01T06:13:52.132Z,3.40
2023-01-01T06:16:18.804Z,2.37
2023-01-01T06:18:45.422Z,2.87
2023-01-01T06:21:15.319Z,3.77
2023-01-01T06:23:42.044Z,2.57
2023-01-01T06:26:10.460Z,2.50
2023-01-01T06:28:37.651Z,2.43
2023-01-01T06:31:05.730Z,3.20
2023-01-01T06:33:32.720Z,2.43
2023-01-01T06:35:59.524Z,1.70
2023-01-01T06:38:27.447Z,2.03
2023-01-01T06:40:57.422Z,2.60
2023-01-01T06:43:23.961Z,2.63
2023-01-01T06:45:59.853Z,2.00
2023-01-01T06:48:27.492Z,1.83
2023-01-01T06:50:54.064Z,2.67
2023-01-01T06:53:24.021Z,2.13
2023-01-01T06:55:57.060Z,2.20
2023-01-01T06:58:24.171Z,2.43
2023-01-01T07:00:50.723Z,2.77
2023-01-01T07:03:17.285Z,2.50
2023-01-01T07:05:44.078Z,2.37
2023-01-01T07:08:10.659Z,1.80
2023-01-01T07:10:37.208Z,3.03
2023-01-01T07:13:05.156Z,2.10
2023-01-01T07:15:31.709Z,2.40
2023-01-01T07:17:58.319Z,4.23
2023-01-01T07:20:24.861Z,1.70
2023-01-01T07:22:51.450Z,2.40
2023-01-01T07:25:17.971Z,3.10
2023-01-01T07:27:44.551Z,1.93
2023-01-01T07:30:12.749Z,2.90
2023-01-01T07:32:39.368Z,3.63
2023-01-01T07:35:06.873Z,2.30
2023-01-01T07:37:33.398Z,2.17
2023-01-01T07:39:59.974Z,3.20
2023-01-01T07:42:26.509Z,2.93
2023-01-01T07:44:53.071Z,2.37
2023-01-01T07:47:23.131Z,2.10
2023-01-01T07:49:50.383Z,2.53
2023-01-01T07:52:17.002Z,2.57
2023-01-01T07:54:44.033Z,2.80
2023-01-01T07:57:10.943Z,2.50
2023-01-01T07:59:37.780Z,3.20
2023-01-01T08:02:04.471Z,2.87
2023-01-01T08:04:32.485Z,4.40
2023-01-01T08:06:59.049Z,3.83
2023-01-01T08:09:25.639Z,2.80
2023-01-01T08:11:52.191Z,4.10
2023-01-01T08:14:18.719Z,2.57
2023-01-01T08:16:45.328Z,1.93
2023-01-01T08:19:11.880Z,2.20
2023-01-01T08:21:39.799Z,2.10
2023-01-01T08:24:06.761Z,3.53
2023-01-01T08:26:35.466Z,3.20
2023-01-01T08:29:04.131Z,2.40
2023-01-01T08:31:30.862Z,3.23
2023-01-01T08:33:57.458Z,2.17
2023-01-01T08:36:24.114Z,2.73
2023-01-01T08:38:52.052Z,3.20
2023-01-01T08:41:18.617Z,2.87
2023-01-01T08:43:45.153Z,2.03
2023-01-01T08:46:11.716Z,2.37
2023-01-01T08:48:38.320Z,3.07
2023-01-01T08:51:05.410Z,2.80
2023-01-01T08:53:32.453Z,2.10
2023-01-01T08:56:01.886Z,2.97
2023-01-01T08:58:28.473Z,3.90
2023-01-01T09:00:55.032Z,2.87
2023-01-01T09:03:22.401Z,2.87
2023-01-01T09:05:49.280Z,3.10
2023-01-01T09:08:16.236Z,3.90
2023-01-01T09:10:43.176Z,3.30
2023-01-01T09:13:11.966Z,3.50
2023-01-01T09:15:38.644Z,4.30
2023-01-01T09:18:05.493Z,6.60
2023-01-01T09:20:32.082Z,5.77
2023-01-01T09:23:04.007Z,4.77
2023-01-01T09:25:32.947Z,4.70
2023-01-01T09:28:00.267Z,4.53
2023-01-01T09:30:28.557Z,3.73
2023-01-01T09:32:55.097Z,3.47
2023-01-01T09:35:21.774Z,3.67
2023-01-01T09:37:48.714Z,2.73
2023-01-01T09:40:27.898Z,4.73
2023-01-01T09:43:06.220Z,5.60
2023-01-01T09:45:38.905Z,6.90
2023-01-01T09:48:09.914Z,5.00
2023-01-01T09:50:39.458Z,8.53
2023-01-01T09:53:12.831Z,6.00
2023-01-01T09:55:45.212Z,4.53
2023-01-01T09:58:12.062Z,11.87
2023-01-01T10:00:43.331Z,6.50
2023-01-01T10:03:25.072Z,4.40
2023-01-01T10:05:56.876Z,6.17
2023-01-01T10:08:39.503Z,9.50
2023-01-01T10:11:14.428Z,5.43
2023-01-01T10:13:42.940Z,5.70
2023-01-01T10:16:24.064Z,4.53
2023-01-01T10:18:55.533Z,5.23
2023-01-01T10:21:25.560Z,6.33
2023-01-01T10:23:56.191Z,3.23
2023-01-01T10:26:27.053Z,3.17
2023-01-01T10:29:00.907Z,2.90
2023-01-01T10:31:33.057Z,4.03
2023-01-01T10:34:15.443Z,4.73
2023-01-01T10:36:42.935Z,4.27
2023-01-01T10:39:14.341Z,2.30
2023-01-01T10:41:40.920Z,3.50
2023-01-01T10:44:07.990Z,3.70
2023-01-01T10:46:40.766Z,1.97
2023-01-01T10:49:08.640Z,6.67
2023-01-01T10:51:37.704Z,3.27
2023-01-01T10:54:04.566Z,3.13
2023-01-01T10:56:40.447Z,3.77
2023-01-01T10:59:37.313Z,3.93
2023-01-01T11:02:19.353Z,3.97
2023-01-01T11:04:46.377Z,4.83
2023-01-01T11:07:20.594Z,3.37
2023-01-01T11:10:02.413Z,3.97
2023-01-01T11:13:03.487Z,4.33
2023-01-01T11:15:23.668Z,5.70
2023-01-01T11:17:51.822Z,5.83
2023-01-01T11:20:20.347Z,3.60
2023-01-01T11:22:49.002Z,4.47
2023-01-01T11:25:23.539Z,3.23
2023-01-01T11:27:50.290Z,3.63
2023-01-01T11:30:23.531Z,3.90
2023-01-01T11:32:55.974Z,4.20
2023-01-01T11:35:24.552Z,3.97
2023-01-01T11:37:54.648Z,5.17
2023-01-01T11:40:23.946Z,5.43
2023-01-01T11:42:58.096Z,6.33
2023-01-01T11:45:29.681Z,5.50
2023-01-01T11:48:03.515Z,3.43
2023-01-01T11:50:33.171Z,6.77
2023-01-01T11:53:18.884Z,3.13
2023-01-01T11:55:48.581Z,7.93
2023-01-01T11:58:20.015Z,5.23
2023-01-01T12:00:49.305Z,8.47
2023-01-01T12:03:26.805Z,6.27
2023-01-01T12:06:04.009Z,6.67
2023-01-01T12:08:36.111Z,7.20
2023-01-01T12:11:12.299Z,6.33
2023-01-01T12:13:47.584Z,7.57
2023-01-01T12:16:18.495Z,8.27
2023-01-01T12:18:50.364Z,5.83
2023-01-01T12:21:22.116Z,7.93
2023-01-01T12:23:49.042Z,5.07
2023-01-01T12:26:22.214Z,5.20
2023-01-01T12:29:26.221Z,5.63
2023-01-01T12:32:02.913Z,4.13
2023-01-01T12:34:36.265Z,6.50
2023-01-01T12:37:11.691Z,4.17
2023-01-01T12:40:24.292Z,7.97
2023-01-01T12:43:00.956Z,5.37
2023-01-01T12:45:44.687Z,3.97
2023-01-01T12:48:30.584Z,5.20
2023-01-01T12:51:05.583Z,8.13
2023-01-01T12:53:40.369Z,4.90
2023-01-01T12:56:23.790Z,4.70
2023-01-01T12:58:56.143Z,3.57
2023-01-01T13:01:29.980Z,4.93
2023-01-01T13:04:01.599Z,7.57
2023-01-01T13:06:33.963Z,7.93
2023-01-01T13:09:07.267Z,5.47
2023-01-01T13:11:37.400Z,5.40
2023-01-01T13:14:09.492Z,4.63
2023-01-01T13:16:38.774Z,6.57
2023-01-01T13:19:05.872Z,8.13
2023-01-01T13:21:32.559Z,9.00
2023-01-01T13:24:05.201Z,4.70
2023-01-01T13:26:41.535Z,3.53
2023-01-01T13:29:44.170Z,4.83
2023-01-01T13:32:12.945Z,4.07
2023-01-01T13:35:03.534Z,5.90
2023-01-01T13:37:53.940Z,4.60
2023-01-01T13:40:53.443Z,4.23
2023-01-01T13:43:28.093Z,2.73
2023-01-01T13:46:14.742Z,4.90
2023-01-01T13:49:12.171Z,2.00
2023-01-01T13:52:06.961Z,4.43
2023-01-01T13:55:15.096Z,3.00
2023-01-01T13:58:03.110Z,2.83
2023-01-01T14:00:35.738Z,2.47
2023-01-01T14:03:12.118Z,3.73
2023-01-01T14:05:43.884Z,2.83
2023-01-01T14:08:28.076Z,3.23
2023-01-01T14:10:54.564Z,3.00
2023-01-01T14:13:23.717Z,4.43
2023-01-01T14:15:56.616Z,5.83
2023-01-01T14:18:32.538Z,4.73
2023-01-01T14:20:59.203Z,4.07
2023-01-01T14:23:30.891Z,5.67
2023-01-01T14:25:58.527Z,5.63
2023-01-01T14:28:27.499Z,4.80
2023-01-01T14:30:55.849Z,6.47
2023-01-01T14:33:25.690Z,4.53
2023-01-01T14:35:53.208Z,4.60
2023-01-01T14:38:25.045Z,4.17
2023-01-01T14:41:06.596Z,5.10
2023-01-01T14:43:36.096Z,4.47
2023-01-01T14:46:07.603Z,3.77
2023-01-01T14:48:43.173Z,3.47
2023-01-01T14:51:13.556Z,3.33
2023-01-01T14:53:42.513Z,3.83
2023-01-01T14:56:09.326Z,3.27
2023-01-01T14:58:35.956Z,2.97
2023-01-01T15:01:15.790Z,4.57
2023-01-01T15:03:55.563Z,4.00
2023-01-01T15:06:23.941Z,3.60
2023-01-01T15:08:51.001Z,5.23
2023-01-01T15:11:18.709Z,3.17
2023-01-01T15:13:55.557Z,3.57
2023-01-01T15:16:22.446Z,5.33
2023-01-01T15:18:49.983Z,6.73
2023-01-01T15:21:31.927Z,7.57
2023-01-01T15:24:01.093Z,5.57
2023-01-01T15:26:30.400Z,5.13
2023-01-01T15:28:58.520Z,5.30
2023-01-01T15:31:35.215Z,6.10
2023-01-01T15:34:02.524Z,5.17
2023-01-01T15:36:30.655Z,4.83
2023-01-01T15:38:58.061Z,5.63
2023-01-01T15:41:35.438Z,5.40
2023-01-01T15:44:15.398Z,4.10
2023-01-01T15:46:45.882Z,3.83
2023-01-01T15:49:22.715Z,4.90
2023-01-01T15:51:51.443Z,3.57
2023-01-01T15:54:18.868Z,3.40
2023-01-01T15:56:45.609Z,8.23
2023-01-01T15:59:23.837Z,5.33
2023-01-01T16:01:51.173Z,5.73
2023-01-01T16:04:27.661Z,6.10
2023-01-01T16:06:57.939Z,3.67
2023-01-01T16:09:24.536Z,5.60
2023-01-01T16:11:51.856Z,5.83
2023-01-01T16:14:18.597Z,5.53
2023-01-01T16:16:49.161Z,6.87
2023-01-01T16:19:17.950Z,6.60
2023-01-01T16:21:44.785Z,5.97
2023-01-01T16:24:14.217Z,8.93
2023-01-01T16:26:40.897Z,6.37
2023-01-01T16:29:07.618Z,5.97
2023-01-01T16:31:34.408Z,7.00
2023-01-01T16:34:01.097Z,6.43
2023-01-01T16:36:27.697Z,8.03
2023-01-01T16:38:54.450Z,8.03
2023-01-01T16:41:22.606Z,7.87
2023-01-01T16:43:49.317Z,8.23
2023-01-01T16:46:16.056Z,9.03
2023-01-01T16:48:42.705Z,15.50
2023-01-01T16:51:17.812Z,14.20
2023-01-01T16:53:44.420Z,9.07
2023-01-01T16:56:12.037Z,7.53
2023-01-01T16:58:49.375Z,5.80
2023-01-01T17:01:18.125Z,5.97
2023-01-01T17:03:44.767Z,7.20
2023-01-01T17:06:11.382Z,6.73
2023-01-01T17:08:38.846Z,6.03
2023-01-01T17:11:09.957Z,4.50
2023-01-01T17:13:36.925Z,4.40
2023-01-01T17:16:05.549Z,5.20
2023-01-01T17:19:13.919Z,5.73
2023-01-01T17:21:19.033Z,5.70
2023-01-01T17:23:45.977Z,5.63
2023-01-01T17:26:14.045Z,6.70
2023-01-01T17:28:41.265Z,6.90
2023-01-01T17:31:11.750Z,5.70
2023-01-01T17:33:39.167Z,4.00
2023-01-01T17:36:06.955Z,4.90
2023-01-01T17:38:33.925Z,6.10
2023-01-01T17:41:05.138Z,4.07
2023-01-01T17:43:33.135Z,3.87
2023-01-01T17:46:03.750Z,3.90
2023-01-01T17:48:32.196Z,3.50
2023-01-01T17:50:58.853Z,6.30
2023-01-01T17:53:25.505Z,4.37
2023-01-01T17:55:52.097Z,5.50
2023-01-01T17:58:18.741Z,4.77
2023-01-01T18:00:45.317Z,5.27
2023-01-01T18:03:12.361Z,5.53
2023-01-01T18:05:40.407Z,7.23
2023-01-01T18:08:07.071Z,8.07
2023-01-01T18:10:33.635Z,4.83
2023-01-01T18:13:00.470Z,3.47
2023-01-01T18:15:27.186Z,3.67
2023-01-01T18:17:53.769Z,5.50
2023-01-01T18:20:20.417Z,5.37
2023-01-01T18:22:48.398Z,4.83
2023-01-01T18:25:15.155Z,6.47
2023-01-01T18:27:41.730Z,4.43
2023-01-01T18:30:09.117Z,6.97
2023-01-01T18:32:35.721Z,4.53
2023-01-01T18:35:02.297Z,4.80
2023-01-01T18:37:28.839Z,5.13
2023-01-01T18:39:58.948Z,5.37
2023-01-01T18:42:37.846Z,5.13
2023-01-01T18:45:14.435Z,4.80
2023-01-01T18:47:41.039Z,5.33
2023-01-01T18:50:15.918Z,3.97
2023-01-01T18:52:42.802Z,5.97
2023-01-01T18:55:14.983Z,6.27
2023-01-01T18:57:41.603Z,5.20
2023-01-01T19:00:18.019Z,5.73
2023-01-01T19:02:46.339Z,5.20
2023-01-01T19:05:16.875Z,4.57
2023-01-01T19:07:45.382Z,5.57
2023-01-01T19:10:13.993Z,4.60
2023-01-01T19:12:40.589Z,5.70
2023-01-01T19:15:15.742Z,5.73
2023-01-01T19:17:42.339Z,4.33
2023-01-01T19:20:15.601Z,4.90
2023-01-01T19:22:42.259Z,4.93
2023-01-01T19:25:32.709Z,4.50
2023-01-01T19:28:22.094Z,5.20
2023-01-01T19:30:48.685Z,6.17
2023-01-01T19:33:15.322Z,6.90
2023-01-01T19:35:41.869Z,6.00
2023-01-01T19:38:08.982Z,4.63
2023-01-01T19:40:37.013Z,5.37
2023-01-01T19:43:03.598Z,6.27
2023-01-01T19:45:30.180Z,5.93
2023-01-01T19:47:56.728Z,9.67
2023-01-01T19:50:23.322Z,6.93
2023-01-01T19:52:49.976Z,7.30
2023-01-01T19:55:16.630Z,6.10
2023-01-01T19:57:44.596Z,5.33
2023-01-01T20:00:11.985Z,5.80
2023-01-01T20:02:47.288Z,4.03
2023-01-01T20:05:14.206Z,5.70
2023-01-01T20:07:40.853Z,5.50
2023-01-01T20:10:08.226Z,4.77
2023-01-01T20:12:34.765Z,6.60
2023-01-01T20:15:02.812Z,5.80
2023-01-01T20:17:29.379Z,4.77
2023-01-01T20:19:56.005Z,7.10
2023-01-01T20:22:22.582Z,6.43
2023-01-01T20:24:49.163Z,6.03
2023-01-01T20:27:17.090Z,4.30
2023-01-01T20:29:43.976Z,5.50
2023-01-01T20:32:11.926Z,4.57
2023-01-01T20:34:38.887Z,5.40
2023-01-01T20:37:05.443Z,6.90
2023-01-01T20:39:32.285Z,6.43
2023-01-01T20:41:58.979Z,4.87
2023-01-01T20:44:25.927Z,5.43
2023-01-01T20:46:52.843Z,6.13
2023-01-01T20:49:21.538Z,4.43
2023-01-01T20:51:50.401Z,5.43
2023-01-01T20:54:17.100Z,4.33
2023-01-01T20:56:43.703Z,4.43
2023-01-01T20:59:33.470Z,4.37
2023-01-01T21:01:56.949Z,4.53
2023-01-01T21:04:25.024Z,3.50
2023-01-01T21:06:51.666Z,3.53
2023-01-01T21:09:18.257Z,5.47
2023-01-01T21:11:45.083Z,4.07
2023-01-01T21:14:11.637Z,4.23
2023-01-01T21:16:42.463Z,4.67
2023-01-01T21:19:10.310Z,5.27
2023-01-01T21:21:43.238Z,5.03
2023-01-01T21:24:18.879Z,4.60
2023-01-01T21:26:45.427Z,4.27
2023-01-01T21:29:14.666Z,4.37
2023-01-01T21:31:41.407Z,3.07
2023-01-01T21:34:20.342Z,3.20
2023-01-01T21:36:48.285Z,6.13
2023-01-01T21:39:16.304Z,3.77
2023-01-01T21:41:42.839Z,3.63
2023-01-01T21:44:12.024Z,4.57
2023-01-01T21:46:38.841Z,3.43
2023-01-01T21:49:14.925Z,3.27
2023-01-01T21:51:49.595Z,4.37
2023-01-01T21:54:23.600Z,3.47
2023-01-01T21:56:54.458Z,4.57
2023-01-01T21:59:33.393Z,3.50
2023-01-01T22:02:31.464Z,3.07
2023-01-01T22:05:00.123Z,2.83
2023-01-01T22:07:59.491Z,4.90
2023-01-01T22:10:18.558Z,2.67
2023-01-01T22:12:45.842Z,4.20
2023-01-01T22:15:33.897Z,4.27
2023-01-01T22:18:15.473Z,3.03
2023-01-01T22:20:43.209Z,4.53
2023-01-01T22:23:22.290Z,3.73
2023-01-01T22:25:48.825Z,3.30
2023-01-01T22:28:18.863Z,4.33
2023-01-01T22:30:45.519Z,5.23
2023-01-01T22:33:16.011Z,4.00
2023-01-01T22:35:42.709Z,4.00
2023-01-01T22:38:16.091Z,3.13
2023-01-01T22:40:42.854Z,2.40
2023-01-01T22:43:12.711Z,4.53
2023-01-01T22:45:42.071Z,4.47
2023-01-01T22:48:18.646Z,3.60
2023-01-01T22:50:45.602Z,3.00
2023-01-01T22:53:12.156Z,2.70
2023-01-01T22:55:40.104Z,2.37
2023-01-01T22:58:06.674Z,3.30
2023-01-01T23:00:33.235Z,2.97
2023-01-01T23:02:59.881Z,2.40
2023-01-01T23:05:26.553Z,3.00
2023-01-01T23:07:53.309Z,3.13
2023-01-01T23:10:19.992Z,3.40
2023-01-01T23:12:47.966Z,3.10
2023-01-01T23:15:14.522Z,2.90
2023-01-01T23:17:41.155Z,3.00
2023-01-01T23:20:08.659Z,2.73
2023-01-01T23:22:39.878Z,3.60
2023-01-01T23:25:09.928Z,2.87
2023-01-01T23:27:37.238Z,4.40
2023-01-01T23:30:06.460Z,3.77
2023-01-01T23:32:34.126Z,4.43
2023-01-01T23:35:00.872Z,3.33
2023-01-01T23:37:27.779Z,2.30
2023-01-01T23:39:54.366Z,2.80
2023-01-01T23:42:20.878Z,2.97
2023-01-01T23:44:47.452Z,3.37
2023-01-01T23:47:15.384Z,2.77
2023-01-01T23:49:42.712Z,2.80
2023-01-01T23:52:09.555Z,3.97
2023-01-01T23:54:36.178Z,3.63
2023-01-01T23:57:02.755Z,3.57
2023-01-01T23:59:29.283Z,3.17
